createdAt,value
2022-09-18T00:01:31.352Z,0.80
2022-09-18T00:04:01.912Z,2.35
2022-09-18T00:06:32.552Z,0.77
2022-09-18T00:09:01.823Z,0.70
2022-09-18T00:11:31.573Z,0.80
2022-09-18T00:13:59.290Z,1.02
2022-09-18T00:16:27.571Z,1.25
2022-09-18T00:18:55.115Z,0.80
2022-09-18T00:21:25.840Z,0.60
2022-09-18T00:23:56.610Z,0.85
2022-09-18T00:26:25.775Z,0.60
2022-09-18T00:28:54.653Z,0.50
2022-09-18T00:31:25.750Z,0.60
2022-09-18T00:33:54.486Z,0.70
2022-09-18T00:36:22.234Z,0.60
2022-09-18T00:38:50.815Z,1.05
2022-09-18T00:41:23.853Z,1.27
2022-09-18T00:43:53.143Z,0.80
2022-09-18T00:46:38.321Z,0.90
2022-09-18T00:49:23.966Z,0.60
2022-09-18T00:51:55.810Z,0.95
2022-09-18T00:54:34.841Z,0.95
2022-09-18T00:57:07.262Z,1.20
2022-09-18T00:59:36.667Z,1.48
2022-09-18T01:02:05.822Z,1.00
2022-09-18T01:04:33.540Z,1.15
2022-09-18T01:07:20.157Z,0.80
2022-09-18T01:10:16.060Z,1.00
2022-09-18T01:13:05.683Z,2.33
2022-09-18T01:15:53.754Z,1.25
2022-09-18T01:18:30.646Z,1.15
2022-09-18T01:21:17.439Z,0.95
2022-09-18T01:24:11.695Z,0.65
2022-09-18T01:26:48.169Z,0.70
2022-09-18T01:29:42.725Z,1.25
2022-09-18T01:32:25.179Z,0.77
2022-09-18T01:37:29.437Z,1.23
2022-09-18T01:40:09.078Z,1.10
2022-09-18T01:42:38.706Z,0.90
2022-09-18T01:45:11.752Z,0.80
2022-09-18T01:47:47.451Z,1.38
2022-09-18T01:50:18.471Z,0.80
2022-09-18T01:53:01.009Z,0.90
2022-09-18T01:58:18.989Z,0.90
2022-09-18T02:00:52.648Z,1.15
2022-09-18T02:03:26.189Z,1.50
2022-09-18T02:06:03.313Z,0.82
2022-09-18T02:08:42.477Z,0.60
2022-09-18T02:11:13.077Z,0.47
2022-09-18T02:13:47.249Z,0.50
2022-09-18T02:16:24.360Z,0.55
2022-09-18T02:18:56.358Z,0.47
2022-09-18T02:21:28.376Z,0.47
2022-09-18T02:24:06.755Z,0.60
2022-09-18T02:26:36.372Z,0.50
2022-09-18T02:29:06.445Z,1.45
2022-09-18T02:31:34.612Z,0.75
2022-09-18T02:34:02.165Z,1.75
2022-09-18T02:37:09.619Z,0.50
2022-09-18T02:39:57.510Z,0.68
2022-09-18T02:42:45.802Z,0.85
2022-09-18T02:45:44.396Z,0.70
2022-09-18T02:48:35.208Z,0.40
2022-09-18T02:51:02.628Z,0.57
2022-09-18T02:53:50.993Z,0.60
2022-09-18T02:56:26.985Z,1.83
2022-09-18T02:58:59.310Z,0.77
2022-09-18T03:03:55.347Z,0.93
2022-09-18T03:06:22.919Z,0.40
2022-09-18T03:08:50.365Z,0.60
2022-09-18T03:11:17.814Z,0.47
2022-09-18T03:13:45.513Z,0.52
2022-09-18T03:16:13.017Z,0.50
2022-09-18T03:18:40.780Z,0.57
2022-09-18T03:21:08.254Z,0.50
2022-09-18T03:23:41.266Z,0.50
2022-09-18T03:26:12.305Z,0.50
2022-09-18T03:28:39.775Z,0.47
2022-09-18T03:31:07.313Z,0.70
2022-09-18T03:33:34.780Z,1.42
2022-09-18T03:36:02.385Z,0.45
2022-09-18T03:38:30.133Z,0.50
2022-09-18T03:40:57.557Z,0.60
2022-09-18T03:43:25.074Z,0.60
2022-09-18T03:45:52.814Z,1.23
2022-09-18T03:48:20.900Z,0.50
2022-09-18T03:50:51.668Z,0.60
2022-09-18T03:53:19.173Z,0.40
2022-09-18T03:55:47.020Z,0.50
2022-09-18T03:58:14.570Z,1.25
2022-09-18T04:00:42.231Z,0.68
2022-09-18T04:03:10.235Z,0.40
2022-09-18T04:05:37.922Z,0.95
2022-09-18T04:08:06.142Z,0.75
2022-09-18T04:10:34.544Z,1.60
2022-09-18T04:13:02.008Z,0.60
2022-09-18T04:15:29.536Z,1.65
2022-09-18T04:17:57.059Z,0.60
2022-09-18T04:20:24.704Z,0.70
2022-09-18T04:22:52.200Z,0.40
2022-09-18T04:25:19.644Z,0.50
2022-09-18T04:27:47.196Z,0.60
2022-09-18T04:30:15.292Z,0.57
2022-09-18T04:32:43.870Z,1.77
2022-09-18T04:35:11.377Z,0.57
2022-09-18T04:37:39.352Z,0.65
2022-09-18T04:40:07.776Z,1.27
2022-09-18T04:42:35.338Z,0.55
2022-09-18T04:45:02.853Z,0.68
2022-09-18T04:47:30.318Z,1.48
2022-09-18T04:49:57.902Z,0.80
2022-09-18T04:52:25.372Z,0.47
2022-09-18T04:54:53.194Z,0.55
2022-09-18T04:57:20.744Z,0.30
2022-09-18T04:59:48.322Z,0.38
2022-09-18T05:02:16.016Z,0.40
2022-09-18T05:04:43.566Z,1.08
2022-09-18T05:07:11.229Z,0.32
2022-09-18T05:09:38.858Z,0.32
2022-09-18T05:12:06.894Z,1.40
2022-09-18T05:14:34.423Z,0.30
2022-09-18T05:17:02.411Z,0.40
2022-09-18T05:19:29.991Z,1.00
2022-09-18T05:21:57.478Z,0.73
2022-09-18T05:24:24.969Z,0.20
2022-09-18T05:26:52.421Z,0.40
2022-09-18T05:29:19.933Z,0.40
2022-09-18T05:31:47.900Z,0.35
2022-09-18T05:34:15.713Z,0.85
2022-09-18T05:36:43.251Z,0.20
2022-09-18T05:39:15.458Z,0.60
2022-09-18T05:41:44.829Z,1.10
2022-09-18T05:44:12.439Z,0.43
2022-09-18T05:46:40.038Z,0.28
2022-09-18T05:49:07.532Z,0.70
2022-09-18T05:51:34.964Z,0.40
2022-09-18T05:54:02.666Z,0.30
2022-09-18T05:56:30.349Z,0.35
2022-09-18T05:58:57.980Z,0.20
2022-09-18T06:01:25.634Z,0.28
2022-09-18T06:03:53.393Z,0.63
2022-09-18T06:06:20.890Z,0.30
2022-09-18T06:08:48.330Z,1.05
2022-09-18T06:11:15.794Z,0.50
2022-09-18T06:13:44.462Z,0.38
2022-09-18T06:16:11.957Z,0.38
2022-09-18T06:18:39.422Z,0.60
2022-09-18T06:21:06.955Z,0.52
2022-09-18T06:23:34.650Z,0.30
2022-09-18T06:26:11.422Z,0.30
2022-09-18T06:28:41.593Z,0.60
2022-09-18T06:31:09.122Z,0.30
2022-09-18T06:33:36.603Z,0.50
2022-09-18T06:36:08.189Z,0.40
2022-09-18T06:38:35.988Z,0.30
2022-09-18T06:41:03.531Z,1.35
2022-09-18T06:43:31.028Z,0.85
2022-09-18T06:45:58.899Z,0.45
2022-09-18T06:48:29.154Z,0.95
2022-09-18T06:50:59.506Z,0.40
2022-09-18T06:53:27.559Z,0.47
2022-09-18T06:56:00.117Z,0.57
2022-09-18T06:58:27.585Z,0.32
2022-09-18T07:00:55.084Z,0.50
2022-09-18T07:03:22.628Z,0.50
2022-09-18T07:05:50.110Z,0.20
2022-09-18T07:08:17.559Z,0.30
2022-09-18T07:10:45.035Z,0.35
2022-09-18T07:13:12.633Z,0.40
2022-09-18T07:15:40.161Z,0.32
2022-09-18T07:18:08.095Z,0.25
2022-09-18T07:20:35.746Z,0.75
2022-09-18T07:23:03.811Z,0.30
2022-09-18T07:25:34.279Z,0.30
2022-09-18T07:28:09.702Z,0.38
2022-09-18T07:30:38.610Z,0.20
2022-09-18T07:33:08.729Z,1.05
2022-09-18T07:35:36.706Z,0.35
2022-09-18T07:38:07.340Z,1.52
2022-09-18T07:40:35.360Z,0.32
2022-09-18T07:43:06.014Z,0.35
2022-09-18T07:45:34.049Z,0.35
2022-09-18T07:48:03.132Z,0.40
2022-09-18T07:50:30.902Z,0.32
2022-09-18T07:53:02.117Z,0.40
2022-09-18T07:55:29.794Z,0.30
2022-09-18T07:58:02.928Z,0.40
2022-09-18T08:00:34.719Z,0.40
2022-09-18T08:03:04.253Z,0.40
2022-09-18T08:05:32.049Z,0.30
2022-09-18T08:08:10.428Z,0.32
2022-09-18T08:10:38.276Z,0.40
2022-09-18T08:13:05.787Z,0.20
2022-09-18T08:15:34.575Z,0.10
2022-09-18T08:18:01.998Z,0.20
2022-09-18T08:20:29.631Z,0.20
2022-09-18T08:22:58.349Z,0.50
2022-09-18T08:25:27.397Z,0.20
2022-09-18T08:27:54.883Z,0.32
2022-09-18T08:30:22.406Z,0.40
2022-09-18T08:32:49.999Z,0.77
2022-09-18T08:35:17.582Z,0.40
2022-09-18T08:37:49.706Z,0.30
2022-09-18T08:40:21.992Z,0.38
2022-09-18T08:46:26.281Z,0.70
2022-09-18T08:49:02.719Z,0.38
2022-09-18T08:51:38.843Z,0.60
2022-09-18T08:54:20.769Z,1.13
2022-09-18T08:56:48.874Z,0.70
2022-09-18T08:59:27.381Z,0.30
2022-09-18T09:02:06.168Z,0.38
2022-09-18T09:04:33.875Z,0.50
2022-09-18T09:07:39.758Z,0.40
2022-09-18T09:10:22.997Z,0.60
2022-09-18T09:13:21.274Z,0.50
2022-09-18T09:15:57.237Z,0.40
2022-09-18T09:18:28.881Z,0.60
2022-09-18T09:20:58.639Z,1.90
2022-09-18T09:24:02.065Z,1.58
2022-09-18T09:26:32.169Z,0.68
2022-09-18T09:29:19.923Z,0.60
2022-09-18T09:31:53.076Z,0.60
2022-09-18T09:34:32.128Z,0.65
2022-09-18T09:37:04.182Z,0.43
2022-09-18T09:39:43.095Z,0.70
2022-09-18T09:42:22.678Z,0.65
2022-09-18T09:44:53.728Z,0.60
2022-09-18T09:47:46.812Z,0.80
2022-09-18T09:50:21.033Z,0.80
2022-09-18T09:52:48.722Z,0.55
2022-09-18T09:55:22.490Z,0.68
2022-09-18T09:58:12.550Z,0.75
2022-09-18T10:00:49.570Z,0.90
2022-09-18T10:04:01.561Z,1.27
2022-09-18T10:06:33.743Z,0.63
2022-09-18T10:09:15.286Z,0.32
2022-09-18T10:11:50.729Z,1.35
2022-09-18T10:14:25.798Z,0.55
2022-09-18T10:16:56.949Z,0.30
2022-09-18T10:19:30.880Z,0.68
2022-09-18T10:21:58.450Z,0.70
2022-09-18T10:24:42.297Z,0.40
2022-09-18T10:27:15.095Z,0.35
2022-09-18T10:29:43.108Z,0.30
2022-09-18T10:32:12.842Z,0.60
2022-09-18T10:34:51.339Z,0.40
2022-09-18T10:37:39.073Z,0.88
2022-09-18T10:40:09.077Z,0.77
2022-09-18T10:42:39.245Z,1.02
2022-09-18T10:45:21.345Z,0.82
2022-09-18T10:47:49.890Z,0.65
2022-09-18T10:50:20.989Z,0.55
2022-09-18T10:52:49.918Z,1.15
2022-09-18T10:55:22.336Z,0.88
2022-09-18T10:57:49.948Z,1.25
2022-09-18T11:00:20.486Z,1.13
2022-09-18T11:02:52.494Z,0.40
2022-09-18T11:05:23.024Z,0.60
2022-09-18T11:07:56.304Z,0.60
2022-09-18T11:10:26.981Z,0.95
2022-09-18T11:13:01.165Z,0.60
2022-09-18T11:15:36.301Z,0.52
2022-09-18T11:18:08.687Z,0.43
2022-09-18T11:20:43.177Z,0.28
2022-09-18T11:23:19.620Z,0.50
2022-09-18T11:25:47.912Z,0.57
2022-09-18T11:28:29.240Z,0.40
2022-09-18T11:31:03.121Z,0.85
2022-09-18T11:33:49.926Z,0.65
2022-09-18T11:36:25.509Z,1.17
2022-09-18T11:38:53.300Z,0.50
2022-09-18T11:41:27.839Z,0.60
2022-09-18T11:44:03.042Z,0.47
2022-09-18T11:46:49.965Z,0.40
2022-09-18T11:49:40.031Z,1.10
2022-09-18T11:52:18.518Z,0.30
2022-09-18T11:55:04.748Z,0.60
2022-09-18T11:58:07.233Z,2.05
2022-09-18T12:00:49.719Z,0.45
2022-09-18T12:06:01.553Z,0.40
2022-09-18T12:11:42.360Z,0.35
2022-09-18T12:14:17.510Z,0.40
2022-09-18T12:16:51.234Z,0.70
2022-09-18T12:19:34.672Z,0.43
2022-09-18T12:22:21.891Z,0.70
2022-09-18T12:24:50.787Z,0.60
2022-09-18T12:27:30.097Z,1.90
2022-09-18T12:30:03.742Z,0.57
2022-09-18T12:32:59.101Z,0.63
2022-09-18T12:36:01.427Z,0.35
2022-09-18T12:38:28.932Z,0.55
2022-09-18T12:40:59.382Z,0.70
2022-09-18T12:43:54.387Z,0.98
2022-09-18T12:46:49.649Z,0.82
2022-09-18T12:50:04.926Z,0.73
2022-09-18T12:53:09.607Z,0.90
2022-09-18T12:55:52.990Z,0.57
2022-09-18T12:58:41.216Z,1.35
2022-09-18T13:01:34.612Z,0.82
2022-09-18T13:04:32.755Z,0.30
2022-09-18T13:07:11.610Z,0.35
2022-09-18T13:10:08.432Z,0.40
2022-09-18T13:12:57.819Z,0.45
2022-09-18T13:15:37.099Z,0.35
2022-09-18T13:18:21.879Z,0.30
2022-09-18T13:20:49.653Z,0.50
2022-09-18T13:23:25.798Z,0.40
2022-09-18T13:25:54.412Z,0.77
2022-09-18T13:28:23.850Z,0.52
2022-09-18T13:31:30.113Z,0.30
2022-09-18T13:33:57.651Z,0.32
2022-09-18T13:36:35.223Z,0.52
2022-09-18T13:39:08.188Z,0.38
2022-09-18T13:41:55.818Z,0.50
2022-09-18T13:44:30.220Z,0.50
2022-09-18T13:47:19.024Z,0.50
2022-09-18T13:49:56.547Z,0.68
2022-09-18T13:52:42.665Z,0.35
2022-09-18T13:55:16.247Z,0.52
2022-09-18T13:57:45.592Z,1.02
2022-09-18T14:00:22.418Z,0.60
2022-09-18T14:02:51.319Z,0.50
2022-09-18T14:05:30.222Z,0.60
2022-09-18T14:08:08.013Z,0.47
2022-09-18T14:10:37.468Z,0.63
2022-09-18T14:13:17.513Z,1.00
2022-09-18T14:16:21.004Z,0.70
2022-09-18T14:18:48.503Z,0.70
2022-09-18T14:21:19.003Z,0.73
2022-09-18T14:23:46.394Z,0.70
2022-09-18T14:26:32.132Z,0.68
2022-09-18T14:29:12.101Z,0.60
2022-09-18T14:31:49.526Z,0.70
2022-09-18T14:34:39.097Z,0.60
2022-09-18T14:37:39.538Z,1.00
2022-09-18T14:40:24.795Z,0.70
2022-09-18T14:42:52.805Z,1.42
2022-09-18T14:45:26.106Z,2.00
2022-09-18T14:47:54.261Z,1.30
2022-09-18T14:50:37.652Z,1.58
2022-09-18T14:53:20.553Z,0.90
2022-09-18T14:56:10.647Z,1.10
2022-09-18T14:58:41.826Z,1.42
2022-09-18T15:01:24.335Z,1.20
2022-09-18T15:06:25.115Z,0.57
2022-09-18T15:08:58.355Z,1.27
2022-09-18T15:11:37.816Z,0.73
2022-09-18T15:14:45.686Z,0.70
2022-09-18T15:17:24.253Z,0.43
2022-09-18T15:19:57.817Z,0.50
2022-09-18T15:22:26.398Z,0.70
2022-09-18T15:24:55.125Z,0.60
2022-09-18T15:27:24.172Z,1.00
2022-09-18T15:30:06.256Z,0.90
2022-09-18T15:32:40.301Z,0.90
2022-09-18T15:35:18.921Z,0.80
2022-09-18T15:38:02.727Z,2.00
2022-09-18T15:40:37.469Z,0.57
2022-09-18T15:43:40.817Z,0.60
2022-09-18T15:46:11.552Z,0.45
2022-09-18T15:48:50.153Z,0.65
2022-09-18T15:51:35.845Z,0.65
2022-09-18T15:54:12.797Z,0.32
2022-09-18T15:56:54.233Z,0.50
2022-09-18T15:59:29.824Z,0.85
2022-09-18T16:01:58.658Z,0.30
2022-09-18T16:04:29.967Z,0.38
2022-09-18T16:07:05.088Z,0.22
2022-09-18T16:09:41.396Z,0.57
2022-09-18T16:12:30.811Z,0.30
2022-09-18T16:15:25.538Z,0.40
2022-09-18T16:18:12.962Z,0.50
2022-09-18T16:20:43.167Z,0.35
2022-09-18T16:23:16.443Z,1.85
2022-09-18T16:25:45.486Z,0.40
2022-09-18T16:28:25.795Z,0.60
2022-09-18T16:30:54.922Z,0.73
2022-09-18T16:33:25.512Z,0.60
2022-09-18T16:36:06.609Z,0.65
2022-09-18T16:38:35.330Z,1.33
2022-09-18T16:41:03.329Z,1.02
2022-09-18T16:43:30.828Z,1.00
2022-09-18T16:45:58.410Z,1.52
2022-09-18T16:48:26.136Z,0.88
2022-09-18T16:50:54.065Z,0.82
2022-09-18T16:53:21.678Z,0.60
2022-09-18T16:55:52.318Z,0.40
2022-09-18T16:58:22.084Z,0.40
2022-09-18T17:00:49.630Z,0.52
2022-09-18T17:03:18.248Z,0.30
2022-09-18T17:05:46.456Z,1.90
2022-09-18T17:08:14.018Z,0.60
2022-09-18T17:10:44.988Z,1.65
2022-09-18T17:13:13.170Z,1.00
2022-09-18T17:15:40.760Z,0.80
2022-09-18T17:18:08.543Z,0.80
2022-09-18T17:20:35.996Z,1.02
2022-09-18T17:23:03.417Z,0.90
2022-09-18T17:25:30.867Z,0.77
2022-09-18T17:27:58.305Z,1.45
2022-09-18T17:30:26.158Z,1.20
2022-09-18T17:32:53.599Z,1.45
2022-09-18T17:35:21.458Z,1.08
2022-09-18T17:37:51.670Z,1.40
2022-09-18T17:40:20.543Z,1.10
2022-09-18T17:42:48.209Z,0.70
2022-09-18T17:45:15.820Z,1.05
2022-09-18T17:47:43.340Z,0.90
2022-09-18T17:50:10.950Z,1.05
2022-09-18T17:52:38.637Z,1.67
2022-09-18T17:55:06.800Z,1.35
2022-09-18T17:57:38.156Z,1.13
2022-09-18T18:00:06.938Z,1.20
2022-09-18T18:02:34.497Z,1.00
2022-09-18T18:05:02.719Z,1.13
2022-09-18T18:07:30.253Z,1.40
2022-09-18T18:09:57.863Z,1.35
2022-09-18T18:12:25.448Z,1.23
2022-09-18T18:14:54.560Z,1.00
2022-09-18T18:17:28.117Z,2.40
2022-09-18T18:19:55.608Z,2.15
2022-09-18T18:22:23.066Z,1.10
2022-09-18T18:24:50.631Z,1.30
2022-09-18T18:27:20.552Z,1.17
2022-09-18T18:29:52.465Z,1.60
2022-09-18T18:32:20.822Z,1.20
2022-09-18T18:34:48.448Z,1.42
2022-09-18T18:37:15.890Z,1.65
2022-09-18T18:39:43.599Z,1.15
2022-09-18T18:42:11.030Z,1.83
2022-09-18T18:44:40.117Z,1.35
2022-09-18T18:47:07.724Z,1.50
2022-09-18T18:49:35.273Z,1.27
2022-09-18T18:52:04.098Z,1.33
2022-09-18T18:54:32.146Z,1.25
2022-09-18T18:56:59.998Z,1.33
2022-09-18T18:59:27.535Z,2.30
2022-09-18T19:02:01.341Z,1.80
2022-09-18T19:04:30.019Z,2.22
2022-09-18T19:06:57.672Z,1.65
2022-09-18T19:09:26.630Z,1.55
2022-09-18T19:11:54.316Z,3.80
2022-09-18T19:14:39.946Z,3.67
2022-09-18T19:17:09.992Z,2.67
2022-09-18T19:19:37.621Z,2.42
2022-09-18T19:22:05.231Z,3.13
2022-09-18T19:24:33.133Z,3.28
2022-09-18T19:27:01.275Z,2.13
2022-09-18T19:29:29.832Z,3.20
2022-09-18T19:32:00.413Z,2.00
2022-09-18T19:34:28.212Z,2.45
2022-09-18T19:36:55.838Z,3.22
2022-09-18T19:39:24.650Z,2.70
2022-09-18T19:41:52.379Z,2.28
2022-09-18T19:44:52.302Z,2.50
2022-09-18T19:47:22.659Z,2.50
2022-09-18T19:49:51.010Z,1.90
2022-09-18T19:52:24.705Z,3.53
2022-09-18T19:54:56.019Z,3.72
2022-09-18T19:57:26.193Z,2.92
2022-09-18T19:59:55.747Z,1.90
2022-09-18T20:02:24.319Z,2.10
2022-09-18T20:04:52.225Z,2.40
2022-09-18T20:07:22.899Z,2.15
2022-09-18T20:09:51.649Z,2.00
2022-09-18T20:12:19.121Z,2.22
2022-09-18T20:14:46.616Z,2.30
2022-09-18T20:17:14.224Z,1.70
2022-09-18T20:19:42.031Z,1.38
2022-09-18T20:22:09.532Z,2.03
2022-09-18T20:24:37.001Z,1.55
2022-09-18T20:27:04.725Z,1.88
2022-09-18T20:29:32.215Z,1.20
2022-09-18T20:31:59.736Z,1.80
2022-09-18T20:34:27.382Z,2.17
2022-09-18T20:36:54.870Z,1.88
2022-09-18T20:39:22.735Z,1.70
2022-09-18T20:41:51.147Z,1.30
2022-09-18T20:44:19.534Z,2.05
2022-09-18T20:46:47.101Z,2.15
2022-09-18T20:49:17.275Z,1.10
2022-09-18T20:51:44.762Z,1.45
2022-09-18T20:54:14.576Z,2.38
2022-09-18T20:56:44.569Z,2.30
2022-09-18T20:59:13.781Z,3.10
2022-09-18T21:01:41.930Z,1.40
2022-09-18T21:04:16.867Z,1.70
2022-09-18T21:06:46.989Z,1.50
2022-09-18T21:09:15.195Z,0.93
2022-09-18T21:11:44.725Z,1.38
2022-09-18T21:14:15.341Z,1.45
2022-09-18T21:16:43.766Z,2.72
2022-09-18T21:19:18.827Z,2.25
2022-09-18T21:21:47.867Z,1.52
2022-09-18T21:24:16.065Z,1.40
2022-09-18T21:26:49.412Z,1.35
2022-09-18T21:29:18.672Z,1.73
2022-09-18T21:31:47.543Z,1.00
2022-09-18T21:34:24.111Z,2.53
2022-09-18T21:36:53.786Z,1.15
2022-09-18T21:39:21.426Z,2.28
2022-09-18T21:41:48.838Z,2.00
2022-09-18T21:44:21.584Z,1.30
2022-09-18T21:46:50.101Z,1.80
2022-09-18T21:49:19.091Z,2.42
2022-09-18T21:51:47.720Z,1.48
2022-09-18T21:54:20.275Z,2.20
2022-09-18T21:56:51.323Z,1.20
2022-09-18T21:59:20.699Z,1.40
2022-09-18T22:01:48.973Z,1.88
2022-09-18T22:04:17.342Z,0.95
2022-09-18T22:06:46.660Z,1.92
2022-09-18T22:09:17.467Z,1.23
2022-09-18T22:11:46.299Z,2.42
2022-09-18T22:14:19.780Z,0.90
2022-09-18T22:16:48.338Z,2.13
2022-09-18T22:19:17.573Z,1.00
2022-09-18T22:21:47.761Z,2.80
2022-09-18T22:24:18.930Z,2.17
2022-09-18T22:27:02.460Z,1.52
2022-09-18T22:29:32.599Z,1.77
2022-09-18T22:32:00.751Z,1.40
2022-09-18T22:34:30.448Z,0.93
2022-09-18T22:36:59.657Z,2.03
2022-09-18T22:39:27.306Z,1.55
2022-09-18T22:41:54.987Z,1.40
2022-09-18T22:44:22.732Z,1.90
2022-09-18T22:46:52.369Z,1.00
2022-09-18T22:49:21.029Z,1.67
2022-09-18T22:51:48.977Z,2.05
2022-09-18T22:54:17.182Z,1.48
2022-09-18T22:56:49.727Z,1.30
2022-09-18T22:59:18.645Z,2.40
2022-09-18T23:01:52.886Z,2.85
2022-09-18T23:04:23.465Z,2.78
2022-09-18T23:06:51.776Z,3.20
2022-09-18T23:09:20.298Z,3.08
2022-09-18T23:11:50.524Z,4.35
2022-09-18T23:14:21.441Z,5.13
2022-09-18T23:16:50.810Z,2.58
2022-09-18T23:19:27.754Z,2.10
2022-09-18T23:21:55.859Z,3.10
2022-09-18T23:24:23.838Z,2.15
2022-09-18T23:26:53.118Z,1.45
2022-09-18T23:29:25.762Z,1.20
2022-09-18T23:31:55.493Z,1.23
2022-09-18T23:34:26.062Z,1.42
2022-09-18T23:36:56.084Z,1.20
2022-09-18T23:39:29.670Z,1.25
2022-09-18T23:41:59.271Z,1.45
2022-09-18T23:44:28.511Z,1.17
2022-09-18T23:46:56.180Z,1.33
2022-09-18T23:49:23.990Z,2.05
2022-09-18T23:51:53.931Z,1.15
2022-09-18T23:54:24.417Z,1.02
2022-09-18T23:56:53.045Z,1.80
2022-09-18T23:59:23.241Z,1.45
